sensor_id;sensor_type;location;lat;lon;timestamp;P1;P2;P0
76045;PMS7003;64741;41.730;44.788;2023-02-01T00:01:47;18.2;15.4;11.2
76045;PMS7003;64741;41.730;44.788;2023-02-01T00:06:53;16.2;14.6;10.6
76045;PMS7003;64741;41.730;44.788;2023-02-01T00:11:51;18.4;16.6;11.6
76045;PMS7003;64741;41.730;44.788;2023-02-01T00:16:49;19;16.6;12.2
76045;PMS7003;64741;41.730;44.788;2023-02-01T00:21:51;20.4;18;12.4
76045;PMS7003;64741;41.730;44.788;2023-02-01T00:26:49;20.6;17.6;12.8
76045;PMS7003;64741;41.730;44.788;2023-02-01T00:31:49;19.6;17;11.6
76045;PMS7003;64741;41.730;44.788;2023-02-01T00:36:51;20.2;17.4;11.6
76045;PMS7003;64741;41.730;44.788;2023-02-01T00:41:51;18;17.4;13
76045;PMS7003;64741;41.730;44.788;2023-02-01T00:46:49;20.2;17.8;12.4
76045;PMS7003;64741;41.730;44.788;2023-02-01T00:51:51;19.8;17.6;12
76045;PMS7003;64741;41.730;44.788;2023-02-01T00:56:49;18.6;16.2;11.4
76045;PMS7003;64741;41.730;44.788;2023-02-01T01:01:49;17.8;17;12.4
76045;PMS7003;64741;41.730;44.788;2023-02-01T01:06:49;16.4;15;11
76045;PMS7003;64741;41.730;44.788;2023-02-01T01:11:51;17.5;15.5;11.3
76045;PMS7003;64741;41.730;44.788;2023-02-01T01:16:53;20.2;17.6;11.8
76045;PMS7003;64741;41.730;44.788;2023-02-01T01:21:49;17.6;15.2;11.2
76045;PMS7003;64741;41.730;44.788;2023-02-01T01:26:53;18.8;15.8;11.8
76045;PMS7003;64741;41.730;44.788;2023-02-01T01:31:51;19.6;16.2;11.4
76045;PMS7003;64741;41.730;44.788;2023-02-01T01:36:51;17.8;14.4;10.2
76045;PMS7003;64741;41.730;44.788;2023-02-01T01:41:51;17.6;16;11.6
76045;PMS7003;64741;41.730;44.788;2023-02-01T01:46:53;17;16;12
76045;PMS7003;64741;41.730;44.788;2023-02-01T01:51:52;19;16.2;11.2
76045;PMS7003;64741;41.730;44.788;2023-02-01T01:56:52;19.2;16.6;11.8
76045;PMS7003;64741;41.730;44.788;2023-02-01T02:01:47;19.8;17.8;12.2
76045;PMS7003;64741;41.730;44.788;2023-02-01T02:06:51;22.8;18.8;13.4
76045;PMS7003;64741;41.730;44.788;2023-02-01T02:11:49;19.6;17.6;13
76045;PMS7003;64741;41.730;44.788;2023-02-01T02:16:58;20.4;16.2;12
76045;PMS7003;64741;41.730;44.788;2023-02-01T02:21:54;21.8;19;12.8
76045;PMS7003;64741;41.730;44.788;2023-02-01T02:26:53;18;16.4;12.2
76045;PMS7003;64741;41.730;44.788;2023-02-01T02:32:23;18.2;15.8;10.8
76045;PMS7003;64741;41.730;44.788;2023-02-01T02:36:54;20;18.6;12.6
76045;PMS7003;64741;41.730;44.788;2023-02-01T02:41:54;22.6;18.2;13.4
76045;PMS7003;64741;41.730;44.788;2023-02-01T02:46:51;21;18;12.6
76045;PMS7003;64741;41.730;44.788;2023-02-01T02:51:52;20.6;18.6;13.2
76045;PMS7003;64741;41.730;44.788;2023-02-01T02:56:49;20.2;17;12.4
76045;PMS7003;64741;41.730;44.788;2023-02-01T03:01:49;20;18.4;13
76045;PMS7003;64741;41.730;44.788;2023-02-01T03:06:49;19.8;16.2;11.8
76045;PMS7003;64741;41.730;44.788;2023-02-01T03:11:41;20;17.4;12
76045;PMS7003;64741;41.730;44.788;2023-02-01T03:16:54;20;17;12.2
76045;PMS7003;64741;41.730;44.788;2023-02-01T03:21:54;20.2;17;12.6
76045;PMS7003;64741;41.730;44.788;2023-02-01T03:26:48;19;16.6;12
76045;PMS7003;64741;41.730;44.788;2023-02-01T03:31:51;21.4;17.2;12.4
76045;PMS7003;64741;41.730;44.788;2023-02-01T03:36:40;16.8;14.8;10.8
76045;PMS7003;64741;41.730;44.788;2023-02-01T03:41:50;17.2;14.8;10.6
76045;PMS7003;64741;41.730;44.788;2023-02-01T03:46:52;19.6;18;11.8
76045;PMS7003;64741;41.730;44.788;2023-02-01T03:51:51;16.6;15.4;10.6
76045;PMS7003;64741;41.730;44.788;2023-02-01T03:56:33;19.6;16;11
76045;PMS7003;64741;41.730;44.788;2023-02-01T04:01:53;17.2;14.8;11
76045;PMS7003;64741;41.730;44.788;2023-02-01T04:06:51;20;17;11.2
76045;PMS7003;64741;41.730;44.788;2023-02-01T04:11:53;21.2;17;11.2
76045;PMS7003;64741;41.730;44.788;2023-02-01T04:16:51;17.6;16;11.4
76045;PMS7003;64741;41.730;44.788;2023-02-01T04:21:53;19.2;15.2;11
76045;PMS7003;64741;41.730;44.788;2023-02-01T04:26:51;17;15;11
76045;PMS7003;64741;41.730;44.788;2023-02-01T04:31:27;17.8;15.8;10.4
76045;PMS7003;64741;41.730;44.788;2023-02-01T04:36:51;17.6;16;12.2
76045;PMS7003;64741;41.730;44.788;2023-02-01T04:41:49;19.6;15.8;11.2
76045;PMS7003;64741;41.730;44.788;2023-02-01T04:46:49;20.2;17.6;11.8
76045;PMS7003;64741;41.730;44.788;2023-02-01T04:51:51;22.2;18.4;12.8
76045;PMS7003;64741;41.730;44.788;2023-02-01T04:56:49;19.8;18.2;11.6
76045;PMS7003;64741;41.730;44.788;2023-02-01T05:01:49;21.2;17.8;12.6
76045;PMS7003;64741;41.730;44.788;2023-02-01T05:06:53;21.4;18.6;12.6
76045;PMS7003;64741;41.730;44.788;2023-02-01T05:11:51;20.8;17.8;12.4
76045;PMS7003;64741;41.730;44.788;2023-02-01T05:16:51;23.2;19;12.8
76045;PMS7003;64741;41.730;44.788;2023-02-01T05:21:55;18;16.4;12.4
76045;PMS7003;64741;41.730;44.788;2023-02-01T05:26:55;20.6;17.8;12.4
76045;PMS7003;64741;41.730;44.788;2023-02-01T05:31:47;21;16.2;12.2
76045;PMS7003;64741;41.730;44.788;2023-02-01T05:36:51;24.4;19.2;13.4
76045;PMS7003;64741;41.730;44.788;2023-02-01T05:41:55;22.4;18.6;12.8
76045;PMS7003;64741;41.730;44.788;2023-02-01T05:46:41;20.4;18.2;12.6
76045;PMS7003;64741;41.730;44.788;2023-02-01T05:51:53;18.6;17.6;12.2
76045;PMS7003;64741;41.730;44.788;2023-02-01T05:56:41;19.2;16.6;12.4
76045;PMS7003;64741;41.730;44.788;2023-02-01T06:01:49;21.8;17.8;12
76045;PMS7003;64741;41.730;44.788;2023-02-01T06:06:47;19.6;16.2;11.2
76045;PMS7003;64741;41.730;44.788;2023-02-01T06:11:51;18.2;16.4;11.2
76045;PMS7003;64741;41.730;44.788;2023-02-01T06:16:51;19.6;16.6;12.4
76045;PMS7003;64741;41.730;44.788;2023-02-01T06:21:51;18.5;15.3;11.3
76045;PMS7003;64741;41.730;44.788;2023-02-01T06:26:51;22.2;19;13.2
76045;PMS7003;64741;41.730;44.788;2023-02-01T06:31:47;27;25.2;17.2
76045;PMS7003;64741;41.730;44.788;2023-02-01T06:36:53;32.4;28.4;20.2
76045;PMS7003;64741;41.730;44.788;2023-02-01T06:41:47;31.6;27.8;19.2
76045;PMS7003;64741;41.730;44.788;2023-02-01T06:46:51;28.2;25.4;19
76045;PMS7003;64741;41.730;44.788;2023-02-01T06:51:49;27.4;25.2;18.2
76045;PMS7003;64741;41.730;44.788;2023-02-01T06:56:53;30;26.8;19
76045;PMS7003;64741;41.730;44.788;2023-02-01T07:01:49;30;26.4;19.2
76045;PMS7003;64741;41.730;44.788;2023-02-01T07:06:51;26.6;23.6;17.2
76045;PMS7003;64741;41.730;44.788;2023-02-01T07:11:53;24.6;22.8;17.4
76045;PMS7003;64741;41.730;44.788;2023-02-01T07:16:41;25.4;22;16.2
76045;PMS7003;64741;41.730;44.788;2023-02-01T07:21:51;22;19.4;14.4
76045;PMS7003;64741;41.730;44.788;2023-02-01T07:26:51;22.8;20;15.6
76045;PMS7003;64741;41.730;44.788;2023-02-01T07:31:51;21.2;18;13.8
76045;PMS7003;64741;41.730;44.788;2023-02-01T07:36:51;20.6;18.4;13.2
76045;PMS7003;64741;41.730;44.788;2023-02-01T07:41:55;19;16.8;13
76045;PMS7003;64741;41.730;44.788;2023-02-01T07:46:57;19.6;16.4;12
76045;PMS7003;64741;41.730;44.788;2023-02-01T07:51:53;20.2;17.6;12.4
76045;PMS7003;64741;41.730;44.788;2023-02-01T07:56:53;20;15.6;11.2
76045;PMS7003;64741;41.730;44.788;2023-02-01T08:01:51;18;15;10.8
76045;PMS7003;64741;41.730;44.788;2023-02-01T08:06:51;18.4;16.6;11.8
76045;PMS7003;64741;41.730;44.788;2023-02-01T08:11:49;16.8;14.6;10.6
76045;PMS7003;64741;41.730;44.788;2023-02-01T08:16:53;18.2;14.8;11
76045;PMS7003;64741;41.730;44.788;2023-02-01T08:21:55;15.6;14.4;10.6
76045;PMS7003;64741;41.730;44.788;2023-02-01T08:26:51;17.2;15.4;11.4
76045;PMS7003;64741;41.730;44.788;2023-02-01T08:31:55;16.2;13.8;10.4
76045;PMS7003;64741;41.730;44.788;2023-02-01T08:36:53;15;13.2;9.4
76045;PMS7003;64741;41.730;44.788;2023-02-01T08:41:51;13.6;12;9.4
76045;PMS7003;64741;41.730;44.788;2023-02-01T08:46:55;15.4;13.6;9.8
76045;PMS7003;64741;41.730;44.788;2023-02-01T08:51:53;15.6;13.8;9.2
76045;PMS7003;64741;41.730;44.788;2023-02-01T08:56:19;14.6;13;10
76045;PMS7003;64741;41.730;44.788;2023-02-01T09:01:51;13;11.8;8.6
76045;PMS7003;64741;41.730;44.788;2023-02-01T09:06:55;14.2;12;8.2
76045;PMS7003;64741;41.730;44.788;2023-02-01T09:11:49;14.6;11.2;8
76045;PMS7003;64741;41.730;44.788;2023-02-01T09:16:51;14.4;12.2;8.2
76045;PMS7003;64741;41.730;44.788;2023-02-01T09:21:51;15;12.2;8.8
76045;PMS7003;64741;41.730;44.788;2023-02-01T09:26:41;13.4;12;8.8
76045;PMS7003;64741;41.730;44.788;2023-02-01T09:31:49;10.8;10;8
76045;PMS7003;64741;41.730;44.788;2023-02-01T09:36:39;12.6;10.8;7.2
76045;PMS7003;64741;41.730;44.788;2023-02-01T09:41:56;12.8;11.2;8
76045;PMS7003;64741;41.730;44.788;2023-02-01T09:46:53;11.8;10.4;7.8
76045;PMS7003;64741;41.730;44.788;2023-02-01T09:51:53;12;10;7
76045;PMS7003;64741;41.730;44.788;2023-02-01T09:56:56;12.2;10.2;7.2
76045;PMS7003;64741;41.730;44.788;2023-02-01T10:01:49;12.2;9.8;7
76045;PMS7003;64741;41.730;44.788;2023-02-01T10:06:56;10.8;9.6;7
76045;PMS7003;64741;41.730;44.788;2023-02-01T10:12:00;12.8;9.8;7.6
76045;PMS7003;64741;41.730;44.788;2023-02-01T10:16:51;12.2;10.2;7.8
76045;PMS7003;64741;41.730;44.788;2023-02-01T10:21:54;11.8;10.4;7.6
76045;PMS7003;64741;41.730;44.788;2023-02-01T10:26:54;10.2;8.2;6.4
76045;PMS7003;64741;41.730;44.788;2023-02-01T10:31:49;9.8;8.4;5.4
76045;PMS7003;64741;41.730;44.788;2023-02-01T10:36:55;10.6;8.8;6.8
76045;PMS7003;64741;41.730;44.788;2023-02-01T10:41:49;11;9.6;6.6
76045;PMS7003;64741;41.730;44.788;2023-02-01T10:46:57;8.4;8;6
76045;PMS7003;64741;41.730;44.788;2023-02-01T10:51:44;9.6;8.6;6
76045;PMS7003;64741;41.730;44.788;2023-02-01T10:56:55;8.4;7.2;5
76045;PMS7003;64741;41.730;44.788;2023-02-01T11:01:57;9.2;8.4;5.6
76045;PMS7003;64741;41.730;44.788;2023-02-01T11:06:45;9.6;8;6.2
76045;PMS7003;64741;41.730;44.788;2023-02-01T11:11:53;9.8;7.8;5.8
76045;PMS7003;64741;41.730;44.788;2023-02-01T11:16:54;8.4;7;4.6
76045;PMS7003;64741;41.730;44.788;2023-02-01T11:21:54;9.4;8;5.6
76045;PMS7003;64741;41.730;44.788;2023-02-01T11:26:54;9.8;8;5.4
76045;PMS7003;64741;41.730;44.788;2023-02-01T11:31:51;8.3;7;6
76045;PMS7003;64741;41.730;44.788;2023-02-01T11:36:59;8.6;7.6;6
76045;PMS7003;64741;41.730;44.788;2023-02-01T11:41:55;12.4;12;8.4
76045;PMS7003;64741;41.730;44.788;2023-02-01T11:47:08;12.8;10.8;8.2
76045;PMS7003;64741;41.730;44.788;2023-02-01T11:51:56;13.6;12.2;9
76045;PMS7003;64741;41.730;44.788;2023-02-01T11:56:59;16.6;14.4;11.8
76045;PMS7003;64741;41.730;44.788;2023-02-01T12:02:35;17.4;15.8;11.2
76045;PMS7003;64741;41.730;44.788;2023-02-01T12:06:51;16.4;15.4;11.6
76045;PMS7003;64741;41.730;44.788;2023-02-01T12:11:57;16.2;15.8;12
76045;PMS7003;64741;41.730;44.788;2023-02-01T12:17:00;19.8;17.2;12.8
76045;PMS7003;64741;41.730;44.788;2023-02-01T12:21:57;18.6;16;12.4
76045;PMS7003;64741;41.730;44.788;2023-02-01T12:26:58;27;24.6;18.4
76045;PMS7003;64741;41.730;44.788;2023-02-01T12:32:01;29.6;26.2;19.8
76045;PMS7003;64741;41.730;44.788;2023-02-01T12:36:53;30.4;27.6;19.8
76045;PMS7003;64741;41.730;44.788;2023-02-01T12:41:57;31;28;20.4
76045;PMS7003;64741;41.730;44.788;2023-02-01T12:46:56;31;27.6;20.4
76045;PMS7003;64741;41.730;44.788;2023-02-01T12:51:58;32.8;30;21
76045;PMS7003;64741;41.730;44.788;2023-02-01T12:56:46;30.4;27.2;19.6
76045;PMS7003;64741;41.730;44.788;2023-02-01T13:01:53;28;26.8;19.6
76045;PMS7003;64741;41.730;44.788;2023-02-01T13:06:54;28;25.8;18.8
76045;PMS7003;64741;41.730;44.788;2023-02-01T13:11:54;26.4;24;17.4
76045;PMS7003;64741;41.730;44.788;2023-02-01T13:16:56;25;22;15.6
76045;PMS7003;64741;41.730;44.788;2023-02-01T13:21:56;27.6;22.8;16
76045;PMS7003;64741;41.730;44.788;2023-02-01T13:26:53;24.2;20.6;15.6
76045;PMS7003;64741;41.730;44.788;2023-02-01T13:31:54;21.8;20.4;14.2
76045;PMS7003;64741;41.730;44.788;2023-02-01T13:36:58;22.6;19.4;14
76045;PMS7003;64741;41.730;44.788;2023-02-01T13:41:52;24.4;21.6;16.4
76045;PMS7003;64741;41.730;44.788;2023-02-01T13:46:54;25.2;23.4;18.2
76045;PMS7003;64741;41.730;44.788;2023-02-01T13:51:54;27.2;25.2;18.2
76045;PMS7003;64741;41.730;44.788;2023-02-01T13:56:41;25.4;21.6;16.6
76045;PMS7003;64741;41.730;44.788;2023-02-01T14:01:53;29.2;23.2;17.6
76045;PMS7003;64741;41.730;44.788;2023-02-01T14:06:53;25.6;22.6;16
76045;PMS7003;64741;41.730;44.788;2023-02-01T14:11:53;25.4;22.4;17.2
76045;PMS7003;64741;41.730;44.788;2023-02-01T14:17:29;25.4;23.4;16.6
76045;PMS7003;64741;41.730;44.788;2023-02-01T14:21:54;25.2;22;15.8
76045;PMS7003;64741;41.730;44.788;2023-02-01T14:26:42;25;21.8;16.4
76045;PMS7003;64741;41.730;44.788;2023-02-01T14:31:54;23.6;22.2;15.8
76045;PMS7003;64741;41.730;44.788;2023-02-01T14:36:55;24.2;20.2;14.6
76045;PMS7003;64741;41.730;44.788;2023-02-01T14:41:43;24.4;19.8;14.6
76045;PMS7003;64741;41.730;44.788;2023-02-01T14:47:10;21.2;19.8;14.6
76045;PMS7003;64741;41.730;44.788;2023-02-01T14:51:53;20.6;17.8;13.4
76045;PMS7003;64741;41.730;44.788;2023-02-01T14:56:55;20.4;18.2;14.4
76045;PMS7003;64741;41.730;44.788;2023-02-01T15:01:50;17.8;16.2;12.2
76045;PMS7003;64741;41.730;44.788;2023-02-01T15:06:52;20.2;18.6;13.2
76045;PMS7003;64741;41.730;44.788;2023-02-01T15:11:56;18;17;12.6
76045;PMS7003;64741;41.730;44.788;2023-02-01T15:16:51;19.8;17.8;12.6
76045;PMS7003;64741;41.730;44.788;2023-02-01T15:21:55;18.6;16.8;12.4
76045;PMS7003;64741;41.730;44.788;2023-02-01T15:26:53;18.8;15.8;11.6
76045;PMS7003;64741;41.730;44.788;2023-02-01T15:31:51;18.6;17.4;13
76045;PMS7003;64741;41.730;44.788;2023-02-01T15:36:53;16.6;15.2;11.4
76045;PMS7003;64741;41.730;44.788;2023-02-01T15:41:54;15.8;14.6;10.6
76045;PMS7003;64741;41.730;44.788;2023-02-01T15:46:55;16.6;14.4;10.6
76045;PMS7003;64741;41.730;44.788;2023-02-01T15:51:53;19;17.4;12.8
76045;PMS7003;64741;41.730;44.788;2023-02-01T15:56:54;17.6;14.6;11.4
76045;PMS7003;64741;41.730;44.788;2023-02-01T16:01:51;17.2;15.2;11.4
76045;PMS7003;64741;41.730;44.788;2023-02-01T16:06:56;16.2;14.8;11.2
76045;PMS7003;64741;41.730;44.788;2023-02-01T16:11:52;19.6;16;11.6
76045;PMS7003;64741;41.730;44.788;2023-02-01T16:16:56;17.8;16.6;11.8
76045;PMS7003;64741;41.730;44.788;2023-02-01T16:21:49;18.2;15.2;10.8
76045;PMS7003;64741;41.730;44.788;2023-02-01T16:26:51;16.4;14;10.4
76045;PMS7003;64741;41.730;44.788;2023-02-01T16:31:53;16;14;10
76045;PMS7003;64741;41.730;44.788;2023-02-01T16:36:51;16.2;13.6;10
76045;PMS7003;64741;41.730;44.788;2023-02-01T16:41:51;15;13.8;10
76045;PMS7003;64741;41.730;44.788;2023-02-01T16:46:55;15.4;14.2;9.8
76045;PMS7003;64741;41.730;44.788;2023-02-01T16:51:52;17.2;15.8;11.4
76045;PMS7003;64741;41.730;44.788;2023-02-01T16:56:53;15.8;14;10.4
76045;PMS7003;64741;41.730;44.788;2023-02-01T17:01:53;15.4;14;10.2
76045;PMS7003;64741;41.730;44.788;2023-02-01T17:06:51;21.8;19.6;14
76045;PMS7003;64741;41.730;44.788;2023-02-01T17:11:51;20;16.8;12.6
76045;PMS7003;64741;41.730;44.788;2023-02-01T17:16:53;19.8;18;14.4
76045;PMS7003;64741;41.730;44.788;2023-02-01T17:21:54;24;19.4;14.2
76045;PMS7003;64741;41.730;44.788;2023-02-01T17:26:51;68.8;56;36.4
76045;PMS7003;64741;41.730;44.788;2023-02-01T17:31:52;142.4;122.4;76.6
76045;PMS7003;64741;41.730;44.788;2023-02-01T17:36:53;150.8;123.4;77.6
76045;PMS7003;64741;41.730;44.788;2023-02-01T17:41:55;127.6;109.8;69.6
76045;PMS7003;64741;41.730;44.788;2023-02-01T17:46:51;129.2;112.2;70.8
76045;PMS7003;64741;41.730;44.788;2023-02-01T17:51:55;123.6;107.2;68
76045;PMS7003;64741;41.730;44.788;2023-02-01T17:56:53;117;99.6;62.8
76045;PMS7003;64741;41.730;44.788;2023-02-01T18:01:51;117.4;102.6;65.6
76045;PMS7003;64741;41.730;44.788;2023-02-01T18:06:53;112.4;95.8;62.2
76045;PMS7003;64741;41.730;44.788;2023-02-01T18:11:53;98.8;84.8;54.6
76045;PMS7003;64741;41.730;44.788;2023-02-01T18:16:55;96;81.4;53.2
76045;PMS7003;64741;41.730;44.788;2023-02-01T18:21:53;94.6;80.6;53
76045;PMS7003;64741;41.730;44.788;2023-02-01T18:26:53;93;83.6;54.8
76045;PMS7003;64741;41.730;44.788;2023-02-01T18:31:49;90.8;78.6;50
76045;PMS7003;64741;41.730;44.788;2023-02-01T18:36:51;86.6;76.8;50
76045;PMS7003;64741;41.730;44.788;2023-02-01T18:41:49;81.8;71.6;46.4
76045;PMS7003;64741;41.730;44.788;2023-02-01T18:46:15;80.6;69.6;45.6
76045;PMS7003;64741;41.730;44.788;2023-02-01T18:51:51;81.6;70.6;46.2
76045;PMS7003;64741;41.730;44.788;2023-02-01T18:56:51;78.8;66.8;42
76045;PMS7003;64741;41.730;44.788;2023-02-01T19:01:51;76.2;63.6;40.2
76045;PMS7003;64741;41.730;44.788;2023-02-01T19:06:37;74.8;62;42
76045;PMS7003;64741;41.730;44.788;2023-02-01T19:11:50;72;58;38.2
76045;PMS7003;64741;41.730;44.788;2023-02-01T19:16:51;67.8;53.4;34.4
76045;PMS7003;64741;41.730;44.788;2023-02-01T19:21:49;69.2;53.2;34.6
76045;PMS7003;64741;41.730;44.788;2023-02-01T19:26:49;64.4;50;32.8
76045;PMS7003;64741;41.730;44.788;2023-02-01T19:31:53;64.4;48.8;31.8
76045;PMS7003;64741;41.730;44.788;2023-02-01T19:36:53;65.8;50.6;32.4
76045;PMS7003;64741;41.730;44.788;2023-02-01T19:41:53;61.4;46.6;30.8
76045;PMS7003;64741;41.730;44.788;2023-02-01T19:46:49;59;46.4;31.2
76045;PMS7003;64741;41.730;44.788;2023-02-01T19:51:45;62.4;46.6;30.6
76045;PMS7003;64741;41.730;44.788;2023-02-01T19:56:53;62.4;47.6;30.2
76045;PMS7003;64741;41.730;44.788;2023-02-01T20:01:51;60.6;46.2;29.6
76045;PMS7003;64741;41.730;44.788;2023-02-01T20:06:51;57.2;44.2;28.8
76045;PMS7003;64741;41.730;44.788;2023-02-01T20:11:37;59.8;45.4;29.2
76045;PMS7003;64741;41.730;44.788;2023-02-01T20:16:49;53.2;41.6;27.2
76045;PMS7003;64741;41.730;44.788;2023-02-01T20:21:53;55.8;43.8;28.8
76045;PMS7003;64741;41.730;44.788;2023-02-01T20:26:53;51.6;41.6;27.6
76045;PMS7003;64741;41.730;44.788;2023-02-01T20:31:51;56.4;43.4;27.6
76045;PMS7003;64741;41.730;44.788;2023-02-01T20:36:51;54.4;41.2;27
76045;PMS7003;64741;41.730;44.788;2023-02-01T20:41:49;52.4;41.2;26.8
76045;PMS7003;64741;41.730;44.788;2023-02-01T20:46:55;50.2;40.8;26.6
76045;PMS7003;64741;41.730;44.788;2023-02-01T20:51:49;50.4;40;25.8
76045;PMS7003;64741;41.730;44.788;2023-02-01T20:56:27;50;40.4;26.4
76045;PMS7003;64741;41.730;44.788;2023-02-01T21:01:51;49.8;38.8;25.4
76045;PMS7003;64741;41.730;44.788;2023-02-01T21:06:53;49.6;39.2;25.8
76045;PMS7003;64741;41.730;44.788;2023-02-01T21:11:49;48.4;38;25.2
76045;PMS7003;64741;41.730;44.788;2023-02-01T21:16:53;48.2;38.2;26
76045;PMS7003;64741;41.730;44.788;2023-02-01T21:21:51;47.6;37.4;24.8
76045;PMS7003;64741;41.730;44.788;2023-02-01T21:26:53;47.2;36.4;23.6
76045;PMS7003;64741;41.730;44.788;2023-02-01T21:31:43;46.6;36.4;24.2
76045;PMS7003;64741;41.730;44.788;2023-02-01T21:36:51;47.8;36.6;23.8
76045;PMS7003;64741;41.730;44.788;2023-02-01T21:41:53;44.8;34.8;23.8
76045;PMS7003;64741;41.730;44.788;2023-02-01T21:46:55;47.8;37.8;24.4
76045;PMS7003;64741;41.730;44.788;2023-02-01T21:51:51;40.8;34.4;22.4
76045;PMS7003;64741;41.730;44.788;2023-02-01T21:56:51;28.8;26;17.5
76045;PMS7003;64741;41.730;44.788;2023-02-01T22:01:53;20.8;18.8;13.4
76045;PMS7003;64741;41.730;44.788;2023-02-01T22:06:51;16.6;13.8;9.4
76045;PMS7003;64741;41.730;44.788;2023-02-01T22:11:49;10.8;9;6.8
76045;PMS7003;64741;41.730;44.788;2023-02-01T22:16:51;7.2;5.6;4
76045;PMS7003;64741;41.730;44.788;2023-02-01T22:21:55;5.4;4.4;2.8
76045;PMS7003;64741;41.730;44.788;2023-02-01T22:26:55;5;4;2.6
76045;PMS7003;64741;41.730;44.788;2023-02-01T22:31:49;7.6;6.4;4.2
76045;PMS7003;64741;41.730;44.788;2023-02-01T22:36:51;7.4;6.6;4.4
76045;PMS7003;64741;41.730;44.788;2023-02-01T22:41:53;6.6;6.4;4.6
76045;PMS7003;64741;41.730;44.788;2023-02-01T22:46:49;7.4;6;4.4
76045;PMS7003;64741;41.730;44.788;2023-02-01T22:51:49;8.4;7.4;5
76045;PMS7003;64741;41.730;44.788;2023-02-01T22:56:53;8.8;7.4;5
76045;PMS7003;64741;41.730;44.788;2023-02-01T23:01:47;8;6.8;4.6
76045;PMS7003;64741;41.730;44.788;2023-02-01T23:06:47;8.2;6.8;4
76045;PMS7003;64741;41.730;44.788;2023-02-01T23:11:49;10.4;8.6;5.8
76045;PMS7003;64741;41.730;44.788;2023-02-01T23:16:50;9.8;9;6.2
76045;PMS7003;64741;41.730;44.788;2023-02-01T23:21:51;10;7.4;5
76045;PMS7003;64741;41.730;44.788;2023-02-01T23:26:47;11.2;8.8;6.6
76045;PMS7003;64741;41.730;44.788;2023-02-01T23:31:49;10;8.2;5.6
76045;PMS7003;64741;41.730;44.788;2023-02-01T23:36:53;9.8;9.4;6.6
76045;PMS7003;64741;41.730;44.788;2023-02-01T23:41:47;10.6;9;5.8
76045;PMS7003;64741;41.730;44.788;2023-02-01T23:46:53;12.6;9.6;7
76045;PMS7003;64741;41.730;44.788;2023-02-01T23:51:39;11.2;9.6;7.4
76045;PMS7003;64741;41.730;44.788;2023-02-01T23:56:40;12;11;7.4
